Terminal Aerodrome Forecast
Issued by NWS

Home | Current Version | Previous Version | Graphics & Text | Print | Product List | Glossary On
Versions: 1 2 3 4 5 6 7 8 9 10 11 12 13 14 15 16 17 18 19 20
724
FTUS43 KBIS 201730
TAFDIK
TAF
KDIK 201730Z 2018/2118 35013KT P6SM BKN015 OVC022
     FM202000 36010KT P6SM BKN025
     FM202200 02009KT P6SM SCT035
     FM210500 12006KT 6SM BR SKC
     FM210700 14007KT 2SM BR FEW008
     FM210900 13006KT 3/4SM BR VV006
     FM211400 15010KT 5SM BR SCT090=

USA.gov is the U.S. government's official web portal to all federal, state and local government web resources and services.